In Rescue
 
Wind Gusting 00 knots
07
November 25, 2020 5:35 AM EST
Weather Information
Wind Direction
  120 °
Wind Speed
  07 kt (8 mph)
Wind Gust
  00 kt (0 mph)
Altimeter
29.99 in
Visibility
5 SM
Temperature
07° C
45° F
Dewpoint
07° C
45° F
Humidity
100%
Sky Condition
Overcast @ 7,500 ft
Broken @ 4,500 ft
Scattered @ 3,700 ft
MVFR

METAR KIMS 251035Z AUTO 12007KT 5SM SCT037 BKN045 OVC075 07/07 A2999 RMK AO1

FAA Disclaimer: The data displayed is for advisory purposes only and is not to be used for flight planning or operations.